Главная страница
METAR-TAF:

METAR-TAF

Аэропорты :

Уральск, Казахстан

широта: 51-15N, долгота: 051-17E, высота над уровнем моря: 36 м

Текущие метеонаблюдения

Эта сводка был подготовлена 36 минут назад, в 19:00 UTC
Ветер 10 Узел от юго-юго-восточный
Температура 2°C
Влажность 87%
Давление 1024 hPa
Видимость 10 км и более
Сплошная облачность на высоте 3400 фута

METAR: UARR 191900Z 16005MPS 9999 OVC034 02/00 Q1024 R22/150060 NOSIG RMK QFE764/1019

Время: 00:36 (19:36 UTC)

Прогноз

Эта сводка был подготовлена 2 часа и 34 минут назад, в 17:02 UTC
Прогноз действительный с 19-го 18 UTC до 20-го 03 UTC
Ветер 12 Узел от юго-юго-восточный
Видимость: 3000 м
Рассеянная облачность на высоте 700 фута
Рассеянная облачность на высоте 1500 фута, Кучево-дождевые.
небольшие ливневые дожди, дымка
временами
С 19-го 18 UTC до 19-го 24 UTC
Видимость: 0500 м
на высоте 200 фута
туман

TAF: UARR 191702Z 1918/2003 16006MPS 3000 -SHRA BR BKN007 BKN015CB TEMPO 1918/1924 0500 FG VV002

Метеонаблюдения и прогнозы для более 4000 аэропортов (сводки METAR и TAF).

Имеющиеся станции представлены на карте желтыми и красными точками.

Чтобы увидеть название станции, наведите на нее мышь.

Затем щелкните, чтобы увидеть метеонаблюдения и метеопрогнозы.

Управление картой: чтобы увеличить масштаб, щелкните зеленые кнопки с черным крестиком; чтобы уменьшить масштаб, щелкните зеленую кнопку с тире; для просмотра соседних карт щелкайте зеленые стрелки.


METAR-TAF: